Trans Sea — 9HA2564 — position and weather

sailwx.info

Track history (hours):
 
Tides and Currents Weather Stations Pressure Air Temp Water Temp Dewpoint Dewpoint Depression Visibility Wind Speed Wind Dir Waves Ship Positions

Trans Sea

Last reported at 2015-Jul-28 14:33 UTC. Time now 2015-Jul-28 15:19 UTC.
Position N 35°55' W 005°20'.

Length 107 m; draft 6.9 m.

Type: Ship (hazmat cat C). MMSI: 248887000.

Date/timePositionNaut miles runAvg speedWind from/ knotsBaromVisibWave heightAir tempDewpointWater temp
2015-Jul-28 14:33N 35°55' W 005°20'0 0.0
2015-Jul-28 13:30N 35°55' W 005°20'0 0.0
2015-Jul-28 12:33N 35°55' W 005°20'0 0.0
2015-Jul-28 09:30N 35°55' W 005°20'0 0.0
2015-Jul-28 08:33N 35°55' W 005°20'17711.0
2015-Jul-27 16:24N 36°31' W 001°44'1212.6
2015-Jul-27 15:26N 36°34' W 001°30'1212.5
2015-Jul-27 14:30N 36°37' W 001°15'1212.1
2015-Jul-27 13:33N 36°40' W 001°01'1212.2
2015-Jul-27 12:33N 36°43' W 000°47'1212.3
2015-Jul-27 11:33N 36°46' W 000°32'1512.3
2015-Jul-27 10:19N 36°49' W 000°14'1112.7
2015-Jul-27 09:29N 36°52' W 000°01'1212.7
2015-Jul-27 08:33N 36°55' E 000°14'1312.9
2015-Jul-27 07:32N 36°58' E 000°30'1412.8
2015-Jul-27 06:28N 37°01' E 000°46'1212.9
2015-Jul-27 05:32N 37°04' E 001°01'1212.1
2015-Jul-27 04:33N 37°07' E 001°15'2512.5
2015-Jul-27 02:33N 37°12' E 001°46'1512.7
2015-Jul-27 01:22N 37°16' E 002°04'2512.9
2015-Jul-26 23:28N 37°22' E 002°34'1212.6
2015-Jul-26 22:32N 37°25' E 002°48'30712.6
2015-Jul-25 22:08N 37°40' E 009°15'4412.2
2015-Jul-25 18:33N 37°40' E 010°11'20210.6
2015-Jul-24 23:23N 34°36' E 011°55'2912.6
2015-Jul-24 21:04N 34°24' E 011°22'712.6
2015-Jul-24 20:33N 34°22' E 011°15'2 0.1
2015-Jul-23 10:31N 34°24' E 011°17'1313.4
2015-Jul-23 09:33N 34°29' E 011°31'1313.4
2015-Jul-23 08:34N 34°34' E 011°46'1413.5
2015-Jul-23 07:33N 34°39' E 012°01'1413.7
2015-Jul-23 06:33N 34°44' E 012°17'2813.7
2015-Jul-23 04:32N 34°55' E 012°48'2613.1
2015-Jul-23 02:34N 35°05' E 013°17'1513.0
2015-Jul-23 01:26N 35°11' E 013°33'1213.2
2015-Jul-23 00:34N 35°16' E 013°46'1313.1
2015-Jul-22 23:34N 35°21' E 014°01'1313.3
2015-Jul-22 22:34N 35°26' E 014°16'1313.4
2015-Jul-22 21:34N 35°31' E 014°31'1413.6
2015-Jul-22 20:33N 35°37' E 014°46'1312.6
2015-Jul-22 19:34N 35°45' E 014°58'1513.1
2015-Jul-22 18:27N 35°58' E 015°06'1813.4
2015-Jul-22 17:06N 36°13' E 015°18'1013.5
2015-Jul-22 16:21N 36°22' E 015°25'1113.5
2015-Jul-22 15:33N 36°31' E 015°32'1210.4
2015-Jul-22 14:22N 36°42' E 015°39'4 0.5
2015-Jul-22 06:31N 36°45' E 015°42'1 0.8
2015-Jul-22 05:33N 36°46' E 015°42'1 1.0
2015-Jul-22 04:33N 36°47' E 015°42'1 1.2
2015-Jul-22 03:33N 36°48' E 015°41'1 1.2
2015-Jul-22 02:30N 36°49' E 015°41'1 1.1
2015-Jul-22 01:34N 36°50' E 015°41'2 0.8
2015-Jul-21 23:25N 36°52' E 015°40'1 0.6
2015-Jul-21 22:29N 36°53' E 015°40'0 0.4
2015-Jul-21 21:31N 36°53' E 015°40'1 0.5
2015-Jul-21 19:09N 36°54' E 015°40'0 0.4
2015-Jul-21 18:32N 36°54' E 015°40'0 0.2
2015-Jul-21 17:22N 36°55' E 015°40'0 0.0
2015-Jul-21 16:33N 36°55' E 015°40'0 0.1
2015-Jul-21 15:14N 36°55' E 015°40'0 0.2
2015-Jul-21 14:26N 36°55' E 015°40'0 0.2
2015-Jul-21 13:32N 36°55' E 015°40'10 7.1
2015-Jul-21 12:04N 36°45' E 015°36'713.3
2015-Jul-21 11:33N 36°39' E 015°33'2 1.2
2015-Jul-21 10:08N 36°37' E 015°33'1 1.1
2015-Jul-21 09:06N 36°38' E 015°33'1 1.1
2015-Jul-21 08:15N 36°39' E 015°34'1 1.2
2015-Jul-21 07:33N 36°40' E 015°34'15 1.3
2015-Jul-20 20:21N 36°53' E 015°41'1 0.8
2015-Jul-20 19:23N 36°54' E 015°40'1 0.7
2015-Jul-20 18:10N 36°55' E 015°40'0 0.7
2015-Jul-20 17:30N 36°55' E 015°39'0 0.4
2015-Jul-20 16:31N 36°55' E 015°39'0 0.2
2015-Jul-20 15:34N 36°55' E 015°38'0 0.2
2015-Jul-20 14:34N 36°56' E 015°38'0 0.0
2015-Jul-20 13:33N 36°56' E 015°38'1 0.5
2015-Jul-20 12:33N 36°55' E 015°38'1313.0
2015-Jul-20 11:33N 36°44' E 015°29'6 6.3
2015-Jul-20 10:34N 36°39' E 015°24'1 0.6
2015-Jul-20 09:33N 36°40' E 015°25'7 3.3
2015-Jul-20 07:33N 36°37' E 015°17'20 9.0
2015-Jul-20 05:20N 36°31' E 015°41'1212.3
2015-Jul-20 04:23N 36°31' E 015°55'17212.4
2015-Jul-19 14:32N 36°25' E 019°28'  
Track history (hours):
 
Tides and Currents Weather Stations Pressure Air Temp Water Temp Dewpoint Dewpoint Depression Visibility Wind Speed Wind Dir Waves Ship Positions

Trans Sea

Last reported at 2015-Jul-28 14:33 UTC. Time now 2015-Jul-28 15:19 UTC.
Position N 35°55' W 005°20'.

Length 107 m; draft 6.9 m.

Type: Ship (hazmat cat C). MMSI: 248887000.

Date/timePositionNaut miles runAvg speedWind from/ knotsBaromVisibWave heightAir tempDewpointWater temp
2015-Jul-28 14:33N 35°55' W 005°20'0 0.0
2015-Jul-28 13:30N 35°55' W 005°20'0 0.0
2015-Jul-28 12:33N 35°55' W 005°20'0 0.0
2015-Jul-28 09:30N 35°55' W 005°20'0 0.0
2015-Jul-28 08:33N 35°55' W 005°20'17711.0
2015-Jul-27 16:24N 36°31' W 001°44'1212.6
2015-Jul-27 15:26N 36°34' W 001°30'1212.5
2015-Jul-27 14:30N 36°37' W 001°15'1212.1
2015-Jul-27 13:33N 36°40' W 001°01'1212.2
2015-Jul-27 12:33N 36°43' W 000°47'1212.3
2015-Jul-27 11:33N 36°46' W 000°32'1512.3
2015-Jul-27 10:19N 36°49' W 000°14'1112.7
2015-Jul-27 09:29N 36°52' W 000°01'1212.7
2015-Jul-27 08:33N 36°55' E 000°14'1312.9
2015-Jul-27 07:32N 36°58' E 000°30'1412.8
2015-Jul-27 06:28N 37°01' E 000°46'1212.9
2015-Jul-27 05:32N 37°04' E 001°01'1212.1
2015-Jul-27 04:33N 37°07' E 001°15'2512.5
2015-Jul-27 02:33N 37°12' E 001°46'1512.7
2015-Jul-27 01:22N 37°16' E 002°04'2512.9
2015-Jul-26 23:28N 37°22' E 002°34'1212.6
2015-Jul-26 22:32N 37°25' E 002°48'30712.6
2015-Jul-25 22:08N 37°40' E 009°15'4412.2
2015-Jul-25 18:33N 37°40' E 010°11'20210.6
2015-Jul-24 23:23N 34°36' E 011°55'2912.6
2015-Jul-24 21:04N 34°24' E 011°22'712.6
2015-Jul-24 20:33N 34°22' E 011°15'2 0.1
2015-Jul-23 10:31N 34°24' E 011°17'1313.4
2015-Jul-23 09:33N 34°29' E 011°31'1313.4
2015-Jul-23 08:34N 34°34' E 011°46'1413.5
2015-Jul-23 07:33N 34°39' E 012°01'1413.7
2015-Jul-23 06:33N 34°44' E 012°17'2813.7
2015-Jul-23 04:32N 34°55' E 012°48'2613.1
2015-Jul-23 02:34N 35°05' E 013°17'1513.0
2015-Jul-23 01:26N 35°11' E 013°33'1213.2
2015-Jul-23 00:34N 35°16' E 013°46'1313.1
2015-Jul-22 23:34N 35°21' E 014°01'1313.3
2015-Jul-22 22:34N 35°26' E 014°16'1313.4
2015-Jul-22 21:34N 35°31' E 014°31'1413.6
2015-Jul-22 20:33N 35°37' E 014°46'1312.6
2015-Jul-22 19:34N 35°45' E 014°58'1513.1
2015-Jul-22 18:27N 35°58' E 015°06'1813.4
2015-Jul-22 17:06N 36°13' E 015°18'1013.5
2015-Jul-22 16:21N 36°22' E 015°25'1113.5
2015-Jul-22 15:33N 36°31' E 015°32'1210.4
2015-Jul-22 14:22N 36°42' E 015°39'4 0.5
2015-Jul-22 06:31N 36°45' E 015°42'1 0.8
2015-Jul-22 05:33N 36°46' E 015°42'1 1.0
2015-Jul-22 04:33N 36°47' E 015°42'1 1.2
2015-Jul-22 03:33N 36°48' E 015°41'1 1.2
2015-Jul-22 02:30N 36°49' E 015°41'1 1.1
2015-Jul-22 01:34N 36°50' E 015°41'2 0.8
2015-Jul-21 23:25N 36°52' E 015°40'1 0.6
2015-Jul-21 22:29N 36°53' E 015°40'0 0.4
2015-Jul-21 21:31N 36°53' E 015°40'1 0.5
2015-Jul-21 19:09N 36°54' E 015°40'0 0.4
2015-Jul-21 18:32N 36°54' E 015°40'0 0.2
2015-Jul-21 17:22N 36°55' E 015°40'0 0.0
2015-Jul-21 16:33N 36°55' E 015°40'0 0.1
2015-Jul-21 15:14N 36°55' E 015°40'0 0.2
2015-Jul-21 14:26N 36°55' E 015°40'0 0.2
2015-Jul-21 13:32N 36°55' E 015°40'10 7.1
2015-Jul-21 12:04N 36°45' E 015°36'713.3
2015-Jul-21 11:33N 36°39' E 015°33'2 1.2
2015-Jul-21 10:08N 36°37' E 015°33'1 1.1
2015-Jul-21 09:06N 36°38' E 015°33'1 1.1
2015-Jul-21 08:15N 36°39' E 015°34'1 1.2
2015-Jul-21 07:33N 36°40' E 015°34'15 1.3
2015-Jul-20 20:21N 36°53' E 015°41'1 0.8
2015-Jul-20 19:23N 36°54' E 015°40'1 0.7
2015-Jul-20 18:10N 36°55' E 015°40'0 0.7
2015-Jul-20 17:30N 36°55' E 015°39'0 0.4
2015-Jul-20 16:31N 36°55' E 015°39'0 0.2
2015-Jul-20 15:34N 36°55' E 015°38'0 0.2
2015-Jul-20 14:34N 36°56' E 015°38'0 0.0
2015-Jul-20 13:33N 36°56' E 015°38'1 0.5
2015-Jul-20 12:33N 36°55' E 015°38'1313.0
2015-Jul-20 11:33N 36°44' E 015°29'6 6.3
2015-Jul-20 10:34N 36°39' E 015°24'1 0.6
2015-Jul-20 09:33N 36°40' E 015°25'7 3.3
2015-Jul-20 07:33N 36°37' E 015°17'20 9.0
2015-Jul-20 05:20N 36°31' E 015°41'1212.3
2015-Jul-20 04:23N 36°31' E 015°55'17212.4
2015-Jul-19 14:32N 36°25' E 019°28'  

Dump ship's entire track history